sensor_id;sensor_type;location;lat;lon;timestamp;P1;durP1;ratioP1;P2;durP2;ratioP2
38425;SDS011;24210;51.460;6.148;2023-11-21T00:00:14;15.93;;;8.60;;
38425;SDS011;24210;51.460;6.148;2023-11-21T00:02:40;12.27;;;9.23;;
38425;SDS011;24210;51.460;6.148;2023-11-21T00:05:09;14.68;;;8.55;;
38425;SDS011;24210;51.460;6.148;2023-11-21T00:07:35;11.48;;;8.05;;
38425;SDS011;24210;51.460;6.148;2023-11-21T00:10:00;14.07;;;8.50;;
38425;SDS011;24210;51.460;6.148;2023-11-21T00:12:25;15.37;;;9.50;;
38425;SDS011;24210;51.460;6.148;2023-11-21T00:14:50;14.27;;;8.53;;
38425;SDS011;24210;51.460;6.148;2023-11-21T00:17:16;11.57;;;7.73;;
38425;SDS011;24210;51.460;6.148;2023-11-21T00:19:41;14.23;;;9.13;;
38425;SDS011;24210;51.460;6.148;2023-11-21T00:22:07;12.82;;;8.73;;
38425;SDS011;24210;51.460;6.148;2023-11-21T00:24:34;15.27;;;9.15;;
38425;SDS011;24210;51.460;6.148;2023-11-21T00:26:59;13.27;;;8.20;;
38425;SDS011;24210;51.460;6.148;2023-11-21T00:29:24;15.30;;;8.93;;
38425;SDS011;24210;51.460;6.148;2023-11-21T00:31:49;14.17;;;9.70;;
38425;SDS011;24210;51.460;6.148;2023-11-21T00:34:15;11.57;;;9.13;;
38425;SDS011;24210;51.460;6.148;2023-11-21T00:36:40;13.13;;;10.23;;
38425;SDS011;24210;51.460;6.148;2023-11-21T00:39:05;15.67;;;9.27;;
38425;SDS011;24210;51.460;6.148;2023-11-21T00:41:31;13.10;;;8.53;;
38425;SDS011;24210;51.460;6.148;2023-11-21T00:43:56;16.30;;;8.50;;
38425;SDS011;24210;51.460;6.148;2023-11-21T00:46:21;10.87;;;7.93;;
38425;SDS011;24210;51.460;6.148;2023-11-21T00:48:49;16.95;;;8.73;;
38425;SDS011;24210;51.460;6.148;2023-11-21T00:51:14;17.03;;;9.30;;
38425;SDS011;24210;51.460;6.148;2023-11-21T00:53:39;12.70;;;8.60;;
38425;SDS011;24210;51.460;6.148;2023-11-21T00:56:05;13.57;;;9.17;;
38425;SDS011;24210;51.460;6.148;2023-11-21T00:58:30;18.00;;;9.37;;
38425;SDS011;24210;51.460;6.148;2023-11-21T01:00:55;13.07;;;8.77;;
38425;SDS011;24210;51.460;6.148;2023-11-21T01:03:21;18.03;;;10.30;;
38425;SDS011;24210;51.460;6.148;2023-11-21T01:05:46;13.93;;;10.10;;
38425;SDS011;24210;51.460;6.148;2023-11-21T01:08:12;16.50;;;9.57;;
38425;SDS011;24210;51.460;6.148;2023-11-21T01:10:37;16.83;;;10.90;;
38425;SDS011;24210;51.460;6.148;2023-11-21T01:13:02;16.10;;;10.53;;
38425;SDS011;24210;51.460;6.148;2023-11-21T01:15:30;12.43;;;9.00;;
38425;SDS011;24210;51.460;6.148;2023-11-21T01:17:55;14.23;;;9.63;;
38425;SDS011;24210;51.460;6.148;2023-11-21T01:20:21;14.90;;;10.20;;
38425;SDS011;24210;51.460;6.148;2023-11-21T01:22:46;14.73;;;10.53;;
38425;SDS011;24210;51.460;6.148;2023-11-21T01:25:14;20.63;;;12.43;;
38425;SDS011;24210;51.460;6.148;2023-11-21T01:27:39;18.43;;;11.60;;
38425;SDS011;24210;51.460;6.148;2023-11-21T01:30:04;18.03;;;9.77;;
38425;SDS011;24210;51.460;6.148;2023-11-21T01:32:32;16.17;;;10.00;;
38425;SDS011;24210;51.460;6.148;2023-11-21T01:34:57;18.87;;;11.33;;
38425;SDS011;24210;51.460;6.148;2023-11-21T01:37:22;16.90;;;10.90;;
38425;SDS011;24210;51.460;6.148;2023-11-21T01:39:48;14.37;;;9.87;;
38425;SDS011;24210;51.460;6.148;2023-11-21T01:42:13;14.03;;;10.20;;
38425;SDS011;24210;51.460;6.148;2023-11-21T01:44:38;15.07;;;10.43;;
38425;SDS011;24210;51.460;6.148;2023-11-21T01:47:04;15.43;;;10.77;;
38425;SDS011;24210;51.460;6.148;2023-11-21T01:49:34;17.00;;;10.63;;
38425;SDS011;24210;51.460;6.148;2023-11-21T01:51:59;18.65;;;10.10;;
38425;SDS011;24210;51.460;6.148;2023-11-21T01:54:24;14.23;;;10.07;;
38425;SDS011;24210;51.460;6.148;2023-11-21T01:56:50;18.27;;;11.10;;
38425;SDS011;24210;51.460;6.148;2023-11-21T01:59:17;21.73;;;13.80;;
38425;SDS011;24210;51.460;6.148;2023-11-21T02:01:43;18.42;;;10.95;;
38425;SDS011;24210;51.460;6.148;2023-11-21T02:04:08;20.57;;;12.03;;
38425;SDS011;24210;51.460;6.148;2023-11-21T02:06:34;16.20;;;10.37;;
38425;SDS011;24210;51.460;6.148;2023-11-21T02:09:00;21.13;;;12.13;;
38425;SDS011;24210;51.460;6.148;2023-11-21T02:11:25;17.70;;;12.53;;
38425;SDS011;24210;51.460;6.148;2023-11-21T02:13:51;20.30;;;11.70;;
38425;SDS011;24210;51.460;6.148;2023-11-21T02:16:19;20.27;;;10.93;;
38425;SDS011;24210;51.460;6.148;2023-11-21T02:21:12;18.13;;;10.32;;
38425;SDS011;24210;51.460;6.148;2023-11-21T02:23:37;21.27;;;11.63;;
38425;SDS011;24210;51.460;6.148;2023-11-21T02:26:07;16.90;;;11.05;;
38425;SDS011;24210;51.460;6.148;2023-11-21T02:28:32;19.57;;;11.80;;
38425;SDS011;24210;51.460;6.148;2023-11-21T02:30:58;18.50;;;12.27;;
38425;SDS011;24210;51.460;6.148;2023-11-21T02:33:24;17.53;;;11.70;;
38425;SDS011;24210;51.460;6.148;2023-11-21T02:35:49;15.47;;;11.87;;
38425;SDS011;24210;51.460;6.148;2023-11-21T02:38:16;17.88;;;11.93;;
38425;SDS011;24210;51.460;6.148;2023-11-21T02:40:42;18.50;;;10.47;;
38425;SDS011;24210;51.460;6.148;2023-11-21T02:43:07;21.33;;;12.43;;
38425;SDS011;24210;51.460;6.148;2023-11-21T02:45:32;17.17;;;11.43;;
38425;SDS011;24210;51.460;6.148;2023-11-21T02:47:58;20.20;;;11.40;;
38425;SDS011;24210;51.460;6.148;2023-11-21T02:50:23;14.97;;;11.33;;
38425;SDS011;24210;51.460;6.148;2023-11-21T02:52:48;20.87;;;13.47;;
38425;SDS011;24210;51.460;6.148;2023-11-21T02:55:14;19.67;;;12.10;;
38425;SDS011;24210;51.460;6.148;2023-11-21T02:57:39;17.13;;;11.83;;
38425;SDS011;24210;51.460;6.148;2023-11-21T03:00:04;19.27;;;12.63;;
38425;SDS011;24210;51.460;6.148;2023-11-21T03:02:32;16.15;;;11.15;;
38425;SDS011;24210;51.460;6.148;2023-11-21T03:04:57;21.57;;;12.90;;
38425;SDS011;24210;51.460;6.148;2023-11-21T03:07:23;20.40;;;12.47;;
38425;SDS011;24210;51.460;6.148;2023-11-21T03:09:48;21.03;;;12.37;;
38425;SDS011;24210;51.460;6.148;2023-11-21T03:12:13;17.87;;;10.63;;
38425;SDS011;24210;51.460;6.148;2023-11-21T03:14:39;16.10;;;11.50;;
38425;SDS011;24210;51.460;6.148;2023-11-21T03:17:04;17.90;;;13.43;;
38425;SDS011;24210;51.460;6.148;2023-11-21T03:19:30;22.00;;;12.80;;
38425;SDS011;24210;51.460;6.148;2023-11-21T03:21:55;17.97;;;12.80;;
38425;SDS011;24210;51.460;6.148;2023-11-21T03:24:20;17.93;;;12.60;;
38425;SDS011;24210;51.460;6.148;2023-11-21T03:26:47;24.10;;;13.75;;
38425;SDS011;24210;51.460;6.148;2023-11-21T03:29:12;25.33;;;14.53;;
38425;SDS011;24210;51.460;6.148;2023-11-21T03:31:38;24.80;;;13.93;;
38425;SDS011;24210;51.460;6.148;2023-11-21T03:34:03;22.10;;;13.43;;
38425;SDS011;24210;51.460;6.148;2023-11-21T03:36:28;30.73;;;15.80;;
38425;SDS011;24210;51.460;6.148;2023-11-21T03:38:54;32.53;;;14.63;;
38425;SDS011;24210;51.460;6.148;2023-11-21T03:41:20;26.15;;;13.75;;
38425;SDS011;24210;51.460;6.148;2023-11-21T03:43:45;27.20;;;15.13;;
38425;SDS011;24210;51.460;6.148;2023-11-21T03:46:11;32.27;;;14.50;;
38425;SDS011;24210;51.460;6.148;2023-11-21T03:48:37;33.38;;;15.30;;
38425;SDS011;24210;51.460;6.148;2023-11-21T03:51:02;27.60;;;14.20;;
38425;SDS011;24210;51.460;6.148;2023-11-21T03:53:28;34.23;;;15.40;;
38425;SDS011;24210;51.460;6.148;2023-11-21T03:55:53;31.07;;;14.97;;
38425;SDS011;24210;51.460;6.148;2023-11-21T03:58:18;29.63;;;15.07;;
38425;SDS011;24210;51.460;6.148;2023-11-21T04:00:43;28.33;;;13.50;;
38425;SDS011;24210;51.460;6.148;2023-11-21T04:03:08;33.93;;;13.90;;
38425;SDS011;24210;51.460;6.148;2023-11-21T04:05:34;33.27;;;14.23;;
38425;SDS011;24210;51.460;6.148;2023-11-21T04:07:59;34.03;;;12.07;;
38425;SDS011;24210;51.460;6.148;2023-11-21T04:10:24;30.63;;;14.40;;
38425;SDS011;24210;51.460;6.148;2023-11-21T04:12:49;30.93;;;13.70;;
38425;SDS011;24210;51.460;6.148;2023-11-21T04:15:15;34.13;;;14.57;;
38425;SDS011;24210;51.460;6.148;2023-11-21T04:17:40;24.30;;;13.40;;
38425;SDS011;24210;51.460;6.148;2023-11-21T04:20:06;26.77;;;12.30;;
38425;SDS011;24210;51.460;6.148;2023-11-21T04:22:35;29.30;;;13.40;;
38425;SDS011;24210;51.460;6.148;2023-11-21T04:25:01;34.03;;;14.02;;
38425;SDS011;24210;51.460;6.148;2023-11-21T04:27:26;25.77;;;13.77;;
38425;SDS011;24210;51.460;6.148;2023-11-21T04:29:52;24.03;;;11.80;;
38425;SDS011;24210;51.460;6.148;2023-11-21T04:32:17;26.17;;;11.83;;
38425;SDS011;24210;51.460;6.148;2023-11-21T04:34:42;24.37;;;12.03;;
38425;SDS011;24210;51.460;6.148;2023-11-21T04:37:07;28.10;;;13.40;;
38425;SDS011;24210;51.460;6.148;2023-11-21T04:39:34;29.00;;;14.10;;
38425;SDS011;24210;51.460;6.148;2023-11-21T04:41:59;27.97;;;13.57;;
38425;SDS011;24210;51.460;6.148;2023-11-21T04:44:24;24.87;;;11.90;;
38425;SDS011;24210;51.460;6.148;2023-11-21T04:46:50;31.80;;;13.93;;
38425;SDS011;24210;51.460;6.148;2023-11-21T04:49:15;23.83;;;12.83;;
38425;SDS011;24210;51.460;6.148;2023-11-21T04:51:40;23.63;;;12.40;;
38425;SDS011;24210;51.460;6.148;2023-11-21T04:54:05;26.77;;;13.33;;
38425;SDS011;24210;51.460;6.148;2023-11-21T04:56:31;21.50;;;12.13;;
38425;SDS011;24210;51.460;6.148;2023-11-21T04:58:56;27.43;;;13.37;;
38425;SDS011;24210;51.460;6.148;2023-11-21T05:01:21;25.37;;;13.27;;
38425;SDS011;24210;51.460;6.148;2023-11-21T05:03:46;23.87;;;13.67;;
38425;SDS011;24210;51.460;6.148;2023-11-21T05:06:12;30.27;;;13.57;;
38425;SDS011;24210;51.460;6.148;2023-11-21T05:08:37;28.07;;;14.33;;
38425;SDS011;24210;51.460;6.148;2023-11-21T05:11:03;29.93;;;14.37;;
38425;SDS011;24210;51.460;6.148;2023-11-21T05:13:28;25.43;;;13.93;;
38425;SDS011;24210;51.460;6.148;2023-11-21T05:15:56;29.53;;;14.70;;
38425;SDS011;24210;51.460;6.148;2023-11-21T05:18:24;27.95;;;14.63;;
38425;SDS011;24210;51.460;6.148;2023-11-21T05:20:52;23.92;;;13.93;;
38425;SDS011;24210;51.460;6.148;2023-11-21T05:23:18;27.40;;;14.32;;
38425;SDS011;24210;51.460;6.148;2023-11-21T05:25:43;34.63;;;14.27;;
38425;SDS011;24210;51.460;6.148;2023-11-21T05:28:08;27.17;;;14.60;;
38425;SDS011;24210;51.460;6.148;2023-11-21T05:30:33;31.17;;;14.57;;
38425;SDS011;24210;51.460;6.148;2023-11-21T05:32:59;28.83;;;14.33;;
38425;SDS011;24210;51.460;6.148;2023-11-21T05:35:24;29.17;;;14.20;;
38425;SDS011;24210;51.460;6.148;2023-11-21T05:37:49;24.73;;;14.17;;
38425;SDS011;24210;51.460;6.148;2023-11-21T05:40:15;27.53;;;14.07;;
38425;SDS011;24210;51.460;6.148;2023-11-21T05:42:40;32.83;;;16.33;;
38425;SDS011;24210;51.460;6.148;2023-11-21T05:45:06;26.43;;;13.17;;
38425;SDS011;24210;51.460;6.148;2023-11-21T05:47:39;35.83;;;15.05;;
38425;SDS011;24210;51.460;6.148;2023-11-21T05:50:05;29.42;;;15.00;;
38425;SDS011;24210;51.460;6.148;2023-11-21T05:52:31;19.77;;;12.37;;
38425;SDS011;24210;51.460;6.148;2023-11-21T05:54:57;19.65;;;13.25;;
38425;SDS011;24210;51.460;6.148;2023-11-21T05:57:22;22.27;;;15.37;;
38425;SDS011;24210;51.460;6.148;2023-11-21T05:59:48;22.70;;;15.03;;
38425;SDS011;24210;51.460;6.148;2023-11-21T06:02:13;21.37;;;12.97;;
38425;SDS011;24210;51.460;6.148;2023-11-21T06:04:38;18.80;;;13.33;;
38425;SDS011;24210;51.460;6.148;2023-11-21T06:07:03;17.63;;;13.00;;
38425;SDS011;24210;51.460;6.148;2023-11-21T06:09:29;20.30;;;13.83;;
38425;SDS011;24210;51.460;6.148;2023-11-21T06:11:54;18.87;;;13.37;;
38425;SDS011;24210;51.460;6.148;2023-11-21T06:14:19;18.63;;;13.87;;
38425;SDS011;24210;51.460;6.148;2023-11-21T06:16:46;19.67;;;13.45;;
38425;SDS011;24210;51.460;6.148;2023-11-21T06:19:12;19.60;;;13.17;;
38425;SDS011;24210;51.460;6.148;2023-11-21T06:21:37;19.33;;;13.43;;
38425;SDS011;24210;51.460;6.148;2023-11-21T06:24:03;22.25;;;13.57;;
38425;SDS011;24210;51.460;6.148;2023-11-21T06:26:29;19.93;;;14.00;;
38425;SDS011;24210;51.460;6.148;2023-11-21T06:28:54;20.90;;;13.63;;
38425;SDS011;24210;51.460;6.148;2023-11-21T06:31:20;19.93;;;15.20;;
38425;SDS011;24210;51.460;6.148;2023-11-21T06:33:46;23.83;;;15.32;;
38425;SDS011;24210;51.460;6.148;2023-11-21T06:36:12;21.87;;;15.53;;
38425;SDS011;24210;51.460;6.148;2023-11-21T06:38:37;24.77;;;14.63;;
38425;SDS011;24210;51.460;6.148;2023-11-21T06:41:02;25.83;;;16.43;;
38425;SDS011;24210;51.460;6.148;2023-11-21T06:43:29;25.83;;;15.75;;
38425;SDS011;24210;51.460;6.148;2023-11-21T06:45:56;30.38;;;17.15;;
38425;SDS011;24210;51.460;6.148;2023-11-21T06:48:21;24.60;;;17.10;;
38425;SDS011;24210;51.460;6.148;2023-11-21T06:50:46;23.00;;;15.57;;
38425;SDS011;24210;51.460;6.148;2023-11-21T06:53:11;22.63;;;15.80;;
38425;SDS011;24210;51.460;6.148;2023-11-21T06:55:38;27.27;;;17.60;;
38425;SDS011;24210;51.460;6.148;2023-11-21T06:58:03;29.73;;;17.90;;
38425;SDS011;24210;51.460;6.148;2023-11-21T07:02:55;26.87;;;16.67;;
38425;SDS011;24210;51.460;6.148;2023-11-21T07:05:20;28.67;;;16.63;;
38425;SDS011;24210;51.460;6.148;2023-11-21T07:07:46;28.73;;;17.10;;
38425;SDS011;24210;51.460;6.148;2023-11-21T07:10:11;30.10;;;17.30;;
38425;SDS011;24210;51.460;6.148;2023-11-21T07:12:37;32.45;;;19.38;;
38425;SDS011;24210;51.460;6.148;2023-11-21T07:15:03;29.57;;;17.87;;
38425;SDS011;24210;51.460;6.148;2023-11-21T07:17:30;27.38;;;16.17;;
38425;SDS011;24210;51.460;6.148;2023-11-21T07:19:56;31.05;;;17.10;;
38425;SDS011;24210;51.460;6.148;2023-11-21T07:22:21;27.87;;;17.70;;
38425;SDS011;24210;51.460;6.148;2023-11-21T07:24:49;27.73;;;17.23;;
38425;SDS011;24210;51.460;6.148;2023-11-21T07:27:15;28.95;;;16.80;;
38425;SDS011;24210;51.460;6.148;2023-11-21T07:29:41;26.40;;;17.10;;
38425;SDS011;24210;51.460;6.148;2023-11-21T07:32:06;29.57;;;18.27;;
38425;SDS011;24210;51.460;6.148;2023-11-21T07:34:31;28.30;;;17.00;;
38425;SDS011;24210;51.460;6.148;2023-11-21T07:36:56;29.80;;;17.53;;
38425;SDS011;24210;51.460;6.148;2023-11-21T07:39:22;28.67;;;17.33;;
38425;SDS011;24210;51.460;6.148;2023-11-21T07:41:47;28.97;;;16.83;;
38425;SDS011;24210;51.460;6.148;2023-11-21T07:44:14;27.50;;;17.10;;
38425;SDS011;24210;51.460;6.148;2023-11-21T07:46:39;25.50;;;15.27;;
38425;SDS011;24210;51.460;6.148;2023-11-21T07:49:05;25.65;;;14.95;;
38425;SDS011;24210;51.460;6.148;2023-11-21T07:51:30;22.13;;;13.67;;
38425;SDS011;24210;51.460;6.148;2023-11-21T07:53:56;26.17;;;16.03;;
38425;SDS011;24210;51.460;6.148;2023-11-21T07:56:21;23.50;;;14.87;;
38425;SDS011;24210;51.460;6.148;2023-11-21T07:58:46;23.90;;;16.27;;
38425;SDS011;24210;51.460;6.148;2023-11-21T08:01:11;25.53;;;16.77;;
38425;SDS011;24210;51.460;6.148;2023-11-21T08:03:37;26.37;;;15.90;;
38425;SDS011;24210;51.460;6.148;2023-11-21T08:06:02;29.33;;;16.73;;
38425;SDS011;24210;51.460;6.148;2023-11-21T08:08:30;22.88;;;12.85;;
38425;SDS011;24210;51.460;6.148;2023-11-21T08:10:57;29.13;;;15.57;;
38425;SDS011;24210;51.460;6.148;2023-11-21T08:13:25;25.37;;;16.37;;
38425;SDS011;24210;51.460;6.148;2023-11-21T08:15:54;26.60;;;16.95;;
38425;SDS011;24210;51.460;6.148;2023-11-21T08:18:19;25.75;;;15.48;;
38425;SDS011;24210;51.460;6.148;2023-11-21T08:20:44;18.97;;;12.77;;
38425;SDS011;24210;51.460;6.148;2023-11-21T08:23:12;23.15;;;15.55;;
38425;SDS011;24210;51.460;6.148;2023-11-21T08:25:37;19.77;;;12.73;;
38425;SDS011;24210;51.460;6.148;2023-11-21T08:28:03;23.40;;;14.67;;
38425;SDS011;24210;51.460;6.148;2023-11-21T08:32:55;22.52;;;14.90;;
38425;SDS011;24210;51.460;6.148;2023-11-21T08:35:23;19.35;;;12.35;;
38425;SDS011;24210;51.460;6.148;2023-11-21T08:37:48;22.67;;;15.73;;
38425;SDS011;24210;51.460;6.148;2023-11-21T08:40:15;22.70;;;14.77;;
38425;SDS011;24210;51.460;6.148;2023-11-21T08:42:42;19.48;;;12.57;;
38425;SDS011;24210;51.460;6.148;2023-11-21T08:45:07;19.30;;;13.13;;
38425;SDS011;24210;51.460;6.148;2023-11-21T08:47:34;20.90;;;12.95;;
38425;SDS011;24210;51.460;6.148;2023-11-21T08:49:59;20.67;;;13.83;;
38425;SDS011;24210;51.460;6.148;2023-11-21T08:52:24;24.20;;;14.17;;
38425;SDS011;24210;51.460;6.148;2023-11-21T08:54:50;20.17;;;13.60;;
38425;SDS011;24210;51.460;6.148;2023-11-21T08:57:21;21.25;;;13.80;;
38425;SDS011;24210;51.460;6.148;2023-11-21T08:59:46;20.52;;;13.88;;
38425;SDS011;24210;51.460;6.148;2023-11-21T09:02:12;22.00;;;12.60;;
38425;SDS011;24210;51.460;6.148;2023-11-21T09:04:37;22.73;;;14.17;;
38425;SDS011;24210;51.460;6.148;2023-11-21T09:07:03;19.77;;;13.17;;
38425;SDS011;24210;51.460;6.148;2023-11-21T09:09:28;20.50;;;14.10;;
38425;SDS011;24210;51.460;6.148;2023-11-21T09:11:54;23.02;;;14.65;;
38425;SDS011;24210;51.460;6.148;2023-11-21T09:14:20;20.67;;;14.43;;
38425;SDS011;24210;51.460;6.148;2023-11-21T09:16:45;21.03;;;14.40;;
38425;SDS011;24210;51.460;6.148;2023-11-21T09:19:10;21.47;;;15.57;;
38425;SDS011;24210;51.460;6.148;2023-11-21T09:21:36;22.92;;;15.43;;
38425;SDS011;24210;51.460;6.148;2023-11-21T09:24:02;21.03;;;14.83;;
38425;SDS011;24210;51.460;6.148;2023-11-21T09:26:28;25.83;;;14.30;;
38425;SDS011;24210;51.460;6.148;2023-11-21T09:28:55;23.17;;;14.15;;
38425;SDS011;24210;51.460;6.148;2023-11-21T09:31:21;21.33;;;14.60;;
38425;SDS011;24210;51.460;6.148;2023-11-21T09:33:47;18.60;;;12.10;;
38425;SDS011;24210;51.460;6.148;2023-11-21T09:36:13;21.63;;;14.23;;
38425;SDS011;24210;51.460;6.148;2023-11-21T09:38:41;21.00;;;13.48;;
38425;SDS011;24210;51.460;6.148;2023-11-21T09:41:08;18.97;;;14.33;;
38425;SDS011;24210;51.460;6.148;2023-11-21T09:43:37;17.83;;;12.55;;
38425;SDS011;24210;51.460;6.148;2023-11-21T09:46:03;20.45;;;14.07;;
38425;SDS011;24210;51.460;6.148;2023-11-21T09:48:30;17.88;;;13.30;;
38425;SDS011;24210;51.460;6.148;2023-11-21T09:50:55;21.13;;;13.97;;
38425;SDS011;24210;51.460;6.148;2023-11-21T09:53:22;21.20;;;15.13;;
38425;SDS011;24210;51.460;6.148;2023-11-21T09:55:50;18.40;;;13.75;;
38425;SDS011;24210;51.460;6.148;2023-11-21T09:58:16;20.02;;;14.32;;
38425;SDS011;24210;51.460;6.148;2023-11-21T10:00:45;19.40;;;13.20;;
38425;SDS011;24210;51.460;6.148;2023-11-21T10:03:11;17.17;;;11.00;;
38425;SDS011;24210;51.460;6.148;2023-11-21T10:05:36;17.57;;;11.43;;
38425;SDS011;24210;51.460;6.148;2023-11-21T10:08:04;16.80;;;11.83;;
38425;SDS011;24210;51.460;6.148;2023-11-21T10:10:29;15.45;;;10.50;;
38425;SDS011;24210;51.460;6.148;2023-11-21T10:12:57;18.08;;;13.43;;
38425;SDS011;24210;51.460;6.148;2023-11-21T10:15:23;14.98;;;10.48;;
38425;SDS011;24210;51.460;6.148;2023-11-21T10:17:52;15.20;;;11.27;;
38425;SDS011;24210;51.460;6.148;2023-11-21T10:20:18;15.43;;;11.32;;
38425;SDS011;24210;51.460;6.148;2023-11-21T10:22:44;17.73;;;12.05;;
38425;SDS011;24210;51.460;6.148;2023-11-21T10:25:10;14.23;;;11.07;;
38425;SDS011;24210;51.460;6.148;2023-11-21T10:27:38;19.20;;;12.83;;
38425;SDS011;24210;51.460;6.148;2023-11-21T10:30:04;20.35;;;13.95;;
38425;SDS011;24210;51.460;6.148;2023-11-21T10:32:30;30.53;;;24.43;;
38425;SDS011;24210;51.460;6.148;2023-11-21T10:34:58;39.53;;;31.13;;
38425;SDS011;24210;51.460;6.148;2023-11-21T10:37:31;44.10;;;34.92;;
38425;SDS011;24210;51.460;6.148;2023-11-21T10:39:57;33.50;;;27.17;;
38425;SDS011;24210;51.460;6.148;2023-11-21T10:42:23;39.55;;;31.42;;
38425;SDS011;24210;51.460;6.148;2023-11-21T10:44:49;32.08;;;25.35;;
38425;SDS011;24210;51.460;6.148;2023-11-21T10:47:14;35.53;;;27.70;;
38425;SDS011;24210;51.460;6.148;2023-11-21T10:49:40;27.73;;;22.98;;
38425;SDS011;24210;51.460;6.148;2023-11-21T10:52:05;25.70;;;20.67;;
38425;SDS011;24210;51.460;6.148;2023-11-21T10:54:31;28.20;;;19.47;;
38425;SDS011;24210;51.460;6.148;2023-11-21T10:56:56;17.63;;;11.57;;
38425;SDS011;24210;51.460;6.148;2023-11-21T10:59:22;17.67;;;9.70;;
38425;SDS011;24210;51.460;6.148;2023-11-21T11:01:50;15.45;;;10.45;;
38425;SDS011;24210;51.460;6.148;2023-11-21T11:04:17;12.57;;;9.25;;
38425;SDS011;24210;51.460;6.148;2023-11-21T11:06:43;15.20;;;10.10;;
38425;SDS011;24210;51.460;6.148;2023-11-21T11:09:13;15.38;;;10.18;;
38425;SDS011;24210;51.460;6.148;2023-11-21T11:11:41;12.68;;;9.10;;
38425;SDS011;24210;51.460;6.148;2023-11-21T11:14:08;13.07;;;9.82;;
38425;SDS011;24210;51.460;6.148;2023-11-21T11:16:35;13.77;;;9.30;;
38425;SDS011;24210;51.460;6.148;2023-11-21T11:19:00;11.37;;;9.20;;
38425;SDS011;24210;51.460;6.148;2023-11-21T11:26:50;9.45;;;8.18;;
38425;SDS011;24210;51.460;6.148;2023-11-21T11:31:51;9.77;;;7.75;;
38425;SDS011;24210;51.460;6.148;2023-11-21T11:34:35;10.95;;;8.32;;
38425;SDS011;24210;51.460;6.148;2023-11-21T11:37:05;10.48;;;8.25;;
38425;SDS011;24210;51.460;6.148;2023-11-21T11:39:40;9.98;;;8.18;;
38425;SDS011;24210;51.460;6.148;2023-11-21T11:42:07;12.27;;;8.43;;
38425;SDS011;24210;51.460;6.148;2023-11-21T11:46:58;8.77;;;6.93;;
38425;SDS011;24210;51.460;6.148;2023-11-21T11:49:24;11.40;;;7.97;;
38425;SDS011;24210;51.460;6.148;2023-11-21T11:54:15;11.02;;;7.97;;
38425;SDS011;24210;51.460;6.148;2023-11-21T11:56:42;12.57;;;8.40;;
38425;SDS011;24210;51.460;6.148;2023-11-21T11:59:09;10.00;;;7.82;;
38425;SDS011;24210;51.460;6.148;2023-11-21T12:01:34;10.87;;;7.97;;
38425;SDS011;24210;51.460;6.148;2023-11-21T12:06:48;10.85;;;8.40;;
38425;SDS011;24210;51.460;6.148;2023-11-21T12:09:19;9.83;;;7.63;;
38425;SDS011;24210;51.460;6.148;2023-11-21T12:11:46;7.78;;;6.80;;
38425;SDS011;24210;51.460;6.148;2023-11-21T12:14:12;11.00;;;8.17;;
38425;SDS011;24210;51.460;6.148;2023-11-21T12:16:38;9.27;;;7.22;;
38425;SDS011;24210;51.460;6.148;2023-11-21T12:19:03;9.17;;;7.47;;
38425;SDS011;24210;51.460;6.148;2023-11-21T12:21:29;7.37;;;6.03;;
38425;SDS011;24210;51.460;6.148;2023-11-21T12:23:55;8.93;;;7.60;;
38425;SDS011;24210;51.460;6.148;2023-11-21T12:26:23;10.30;;;7.37;;
38425;SDS011;24210;51.460;6.148;2023-11-21T12:28:52;9.02;;;6.30;;
38425;SDS011;24210;51.460;6.148;2023-11-21T12:31:20;8.98;;;7.32;;
38425;SDS011;24210;51.460;6.148;2023-11-21T12:33:45;9.33;;;7.73;;
38425;SDS011;24210;51.460;6.148;2023-11-21T12:36:11;8.13;;;6.40;;
38425;SDS011;24210;51.460;6.148;2023-11-21T12:38:36;8.63;;;6.87;;
38425;SDS011;24210;51.460;6.148;2023-11-21T12:41:01;7.00;;;6.30;;
38425;SDS011;24210;51.460;6.148;2023-11-21T12:43:27;7.00;;;5.90;;
38425;SDS011;24210;51.460;6.148;2023-11-21T12:46:04;5.90;;;4.73;;
38425;SDS011;24210;51.460;6.148;2023-11-21T12:48:29;6.63;;;4.90;;
38425;SDS011;24210;51.460;6.148;2023-11-21T12:50:56;6.68;;;5.63;;
38425;SDS011;24210;51.460;6.148;2023-11-21T12:53:25;6.43;;;5.25;;
38425;SDS011;24210;51.460;6.148;2023-11-21T12:55:50;8.30;;;5.57;;
38425;SDS011;24210;51.460;6.148;2023-11-21T12:58:16;7.47;;;6.63;;
38425;SDS011;24210;51.460;6.148;2023-11-21T13:00:45;6.87;;;6.17;;
38425;SDS011;24210;51.460;6.148;2023-11-21T13:03:12;7.95;;;5.57;;
38425;SDS011;24210;51.460;6.148;2023-11-21T13:05:41;6.30;;;5.65;;
38425;SDS011;24210;51.460;6.148;2023-11-21T13:08:15;8.27;;;6.47;;
38425;SDS011;24210;51.460;6.148;2023-11-21T13:10:45;7.63;;;6.60;;
38425;SDS011;24210;51.460;6.148;2023-11-21T13:13:12;7.95;;;6.40;;
38425;SDS011;24210;51.460;6.148;2023-11-21T13:15:52;7.30;;;6.60;;
38425;SDS011;24210;51.460;6.148;2023-11-21T13:18:20;7.18;;;6.20;;
38425;SDS011;24210;51.460;6.148;2023-11-21T13:20:46;6.95;;;6.25;;
38425;SDS011;24210;51.460;6.148;2023-11-21T13:23:12;7.27;;;6.47;;
38425;SDS011;24210;51.460;6.148;2023-11-21T13:25:37;10.70;;;8.60;;
38425;SDS011;24210;51.460;6.148;2023-11-21T13:30:29;12.40;;;8.32;;
38425;SDS011;24210;51.460;6.148;2023-11-21T13:32:58;14.25;;;10.98;;
38425;SDS011;24210;51.460;6.148;2023-11-21T13:35:29;16.13;;;11.32;;
38425;SDS011;24210;51.460;6.148;2023-11-21T13:38:06;16.45;;;11.18;;
38425;SDS011;24210;51.460;6.148;2023-11-21T13:40:32;16.70;;;11.65;;
38425;SDS011;24210;51.460;6.148;2023-11-21T13:43:04;16.33;;;11.38;;
38425;SDS011;24210;51.460;6.148;2023-11-21T13:45:30;14.70;;;11.47;;
38425;SDS011;24210;51.460;6.148;2023-11-21T13:47:56;15.67;;;12.20;;
38425;SDS011;24210;51.460;6.148;2023-11-21T13:50:24;16.90;;;13.07;;
38425;SDS011;24210;51.460;6.148;2023-11-21T13:52:54;15.32;;;12.00;;
38425;SDS011;24210;51.460;6.148;2023-11-21T13:55:19;18.13;;;12.87;;
38425;SDS011;24210;51.460;6.148;2023-11-21T13:57:44;19.60;;;14.33;;
38425;SDS011;24210;51.460;6.148;2023-11-21T14:00:14;21.20;;;15.32;;
38425;SDS011;24210;51.460;6.148;2023-11-21T14:03:01;20.17;;;13.90;;
38425;SDS011;24210;51.460;6.148;2023-11-21T14:05:27;18.85;;;13.90;;
38425;SDS011;24210;51.460;6.148;2023-11-21T14:07:56;18.95;;;14.45;;
38425;SDS011;24210;51.460;6.148;2023-11-21T14:10:27;21.33;;;15.43;;
38425;SDS011;24210;51.460;6.148;2023-11-21T14:13:01;22.85;;;15.38;;
38425;SDS011;24210;51.460;6.148;2023-11-21T14:15:27;18.20;;;13.30;;
38425;SDS011;24210;51.460;6.148;2023-11-21T14:17:53;23.02;;;13.85;;
38425;SDS011;24210;51.460;6.148;2023-11-21T14:20:18;19.93;;;13.20;;
38425;SDS011;24210;51.460;6.148;2023-11-21T14:22:45;22.60;;;15.55;;
38425;SDS011;24210;51.460;6.148;2023-11-21T14:25:11;18.63;;;14.10;;
38425;SDS011;24210;51.460;6.148;2023-11-21T14:27:37;20.13;;;14.70;;
38425;SDS011;24210;51.460;6.148;2023-11-21T14:30:02;19.50;;;14.27;;
38425;SDS011;24210;51.460;6.148;2023-11-21T14:32:28;20.97;;;13.90;;
38425;SDS011;24210;51.460;6.148;2023-11-21T14:34:53;21.60;;;13.40;;
38425;SDS011;24210;51.460;6.148;2023-11-21T14:37:18;18.17;;;12.60;;
38425;SDS011;24210;51.460;6.148;2023-11-21T14:39:44;19.23;;;13.32;;
38425;SDS011;24210;51.460;6.148;2023-11-21T14:42:12;18.42;;;13.10;;
38425;SDS011;24210;51.460;6.148;2023-11-21T14:44:39;16.33;;;11.40;;